sensor_id;sensor_type;location;lat;lon;timestamp;temperature;humidity
18321;DHT22;54904;54.350;18.664;2024-01-07T00:01:29;1.90;85.90
18321;DHT22;54904;54.350;18.664;2024-01-07T00:03:56;2.00;86.00
18321;DHT22;54904;54.350;18.664;2024-01-07T00:06:24;2.00;86.10
18321;DHT22;54904;54.350;18.664;2024-01-07T00:08:51;2.00;85.90
18321;DHT22;54904;54.350;18.664;2024-01-07T00:11:18;2.00;85.90
18321;DHT22;54904;54.350;18.664;2024-01-07T00:13:45;1.90;86.00
18321;DHT22;54904;54.350;18.664;2024-01-07T00:16:12;1.90;86.10
18321;DHT22;54904;54.350;18.664;2024-01-07T00:18:40;1.90;86.00
18321;DHT22;54904;54.350;18.664;2024-01-07T00:21:07;1.80;85.90
18321;DHT22;54904;54.350;18.664;2024-01-07T00:23:35;1.80;85.80
18321;DHT22;54904;54.350;18.664;2024-01-07T00:26:02;1.80;85.70
18321;DHT22;54904;54.350;18.664;2024-01-07T00:28:30;1.80;85.70
18321;DHT22;54904;54.350;18.664;2024-01-07T00:30:57;1.80;85.80
18321;DHT22;54904;54.350;18.664;2024-01-07T00:33:24;1.70;85.80
18321;DHT22;54904;54.350;18.664;2024-01-07T00:35:51;1.70;85.70
18321;DHT22;54904;54.350;18.664;2024-01-07T00:38:18;1.70;85.60
18321;DHT22;54904;54.350;18.664;2024-01-07T00:40:47;1.60;85.40
18321;DHT22;54904;54.350;18.664;2024-01-07T00:43:14;1.60;85.60
18321;DHT22;54904;54.350;18.664;2024-01-07T00:45:41;1.60;86.00
18321;DHT22;54904;54.350;18.664;2024-01-07T00:48:08;1.60;86.10
18321;DHT22;54904;54.350;18.664;2024-01-07T00:50:35;1.60;86.40
18321;DHT22;54904;54.350;18.664;2024-01-07T00:53:03;1.70;86.60
18321;DHT22;54904;54.350;18.664;2024-01-07T00:55:30;1.70;86.20
18321;DHT22;54904;54.350;18.664;2024-01-07T00:57:58;1.80;86.20
18321;DHT22;54904;54.350;18.664;2024-01-07T01:00:25;2.10;86.60
18321;DHT22;54904;54.350;18.664;2024-01-07T01:02:53;1.80;86.20
18321;DHT22;54904;54.350;18.664;2024-01-07T01:05:20;1.80;86.30
18321;DHT22;54904;54.350;18.664;2024-01-07T01:07:47;1.80;86.30
18321;DHT22;54904;54.350;18.664;2024-01-07T01:10:15;1.80;86.30
18321;DHT22;54904;54.350;18.664;2024-01-07T01:12:43;1.90;86.40
18321;DHT22;54904;54.350;18.664;2024-01-07T01:15:11;1.90;86.50
18321;DHT22;54904;54.350;18.664;2024-01-07T01:17:38;1.90;86.60
18321;DHT22;54904;54.350;18.664;2024-01-07T01:20:07;1.00;85.70
18321;DHT22;54904;54.350;18.664;2024-01-07T01:22:34;1.80;86.90
18321;DHT22;54904;54.350;18.664;2024-01-07T01:25:01;1.80;87.10
18321;DHT22;54904;54.350;18.664;2024-01-07T01:27:29;1.80;87.40
18321;DHT22;54904;54.350;18.664;2024-01-07T01:29:56;1.80;87.70
18321;DHT22;54904;54.350;18.664;2024-01-07T01:32:24;1.70;87.50
18321;DHT22;54904;54.350;18.664;2024-01-07T01:34:51;1.70;87.50
18321;DHT22;54904;54.350;18.664;2024-01-07T01:37:18;1.60;87.90
18321;DHT22;54904;54.350;18.664;2024-01-07T01:39:45;1.60;87.90
18321;DHT22;54904;54.350;18.664;2024-01-07T01:42:13;1.50;88.00
18321;DHT22;54904;54.350;18.664;2024-01-07T01:44:40;1.50;88.40
18321;DHT22;54904;54.350;18.664;2024-01-07T01:47:09;1.50;88.80
18321;DHT22;54904;54.350;18.664;2024-01-07T01:49:38;1.30;89.10
18321;DHT22;54904;54.350;18.664;2024-01-07T01:52:06;1.20;89.30
18321;DHT22;54904;54.350;18.664;2024-01-07T01:54:33;1.20;89.70
18321;DHT22;54904;54.350;18.664;2024-01-07T01:57:01;1.20;90.00
18321;DHT22;54904;54.350;18.664;2024-01-07T01:59:28;1.20;90.00
18321;DHT22;54904;54.350;18.664;2024-01-07T02:01:56;1.20;90.00
18321;DHT22;54904;54.350;18.664;2024-01-07T02:04:23;1.20;90.00
18321;DHT22;54904;54.350;18.664;2024-01-07T02:06:51;1.30;90.00
18321;DHT22;54904;54.350;18.664;2024-01-07T02:09:18;1.30;90.10
18321;DHT22;54904;54.350;18.664;2024-01-07T02:12:00;1.30;90.10
18321;DHT22;54904;54.350;18.664;2024-01-07T02:14:27;1.40;90.10
18321;DHT22;54904;54.350;18.664;2024-01-07T02:16:54;1.00;89.80
18321;DHT22;54904;54.350;18.664;2024-01-07T02:19:22;0.10;89.10
18321;DHT22;54904;54.350;18.664;2024-01-07T02:21:51;1.20;90.10
18321;DHT22;54904;54.350;18.664;2024-01-07T02:24:19;1.20;90.20
18321;DHT22;54904;54.350;18.664;2024-01-07T02:26:47;1.10;90.30
18321;DHT22;54904;54.350;18.664;2024-01-07T02:29:14;1.10;90.30
18321;DHT22;54904;54.350;18.664;2024-01-07T02:31:41;1.10;90.30
18321;DHT22;54904;54.350;18.664;2024-01-07T02:34:09;1.10;90.30
18321;DHT22;54904;54.350;18.664;2024-01-07T02:36:36;1.10;90.40
18321;DHT22;54904;54.350;18.664;2024-01-07T02:39:03;1.30;90.50
18321;DHT22;54904;54.350;18.664;2024-01-07T02:41:31;1.20;90.60
18321;DHT22;54904;54.350;18.664;2024-01-07T02:43:58;1.20;90.60
18321;DHT22;54904;54.350;18.664;2024-01-07T02:46:25;1.30;90.60
18321;DHT22;54904;54.350;18.664;2024-01-07T02:48:52;1.20;90.60
18321;DHT22;54904;54.350;18.664;2024-01-07T02:51:19;1.20;90.70
18321;DHT22;54904;54.350;18.664;2024-01-07T02:53:46;1.20;90.70
18321;DHT22;54904;54.350;18.664;2024-01-07T02:56:13;1.10;90.60
18321;DHT22;54904;54.350;18.664;2024-01-07T02:58:42;1.10;90.60
18321;DHT22;54904;54.350;18.664;2024-01-07T03:01:09;1.10;90.70
18321;DHT22;54904;54.350;18.664;2024-01-07T03:03:36;1.10;90.70
18321;DHT22;54904;54.350;18.664;2024-01-07T03:06:04;1.10;90.70
18321;DHT22;54904;54.350;18.664;2024-01-07T03:08:31;1.10;90.70
18321;DHT22;54904;54.350;18.664;2024-01-07T03:10:58;1.10;90.70
18321;DHT22;54904;54.350;18.664;2024-01-07T03:13:25;1.10;90.70
18321;DHT22;54904;54.350;18.664;2024-01-07T03:15:54;1.00;90.70
18321;DHT22;54904;54.350;18.664;2024-01-07T03:18:20;1.10;90.80
18321;DHT22;54904;54.350;18.664;2024-01-07T03:20:47;1.10;90.80
18321;DHT22;54904;54.350;18.664;2024-01-07T03:23:14;1.00;90.90
18321;DHT22;54904;54.350;18.664;2024-01-07T03:25:44;1.00;91.20
18321;DHT22;54904;54.350;18.664;2024-01-07T03:28:11;1.10;91.00
18321;DHT22;54904;54.350;18.664;2024-01-07T03:30:38;1.10;91.00
18321;DHT22;54904;54.350;18.664;2024-01-07T03:33:06;1.10;91.00
18321;DHT22;54904;54.350;18.664;2024-01-07T03:35:33;1.10;91.00
18321;DHT22;54904;54.350;18.664;2024-01-07T03:38:00;1.10;91.00
18321;DHT22;54904;54.350;18.664;2024-01-07T03:40:27;1.10;91.10
18321;DHT22;54904;54.350;18.664;2024-01-07T03:42:55;1.00;91.00
18321;DHT22;54904;54.350;18.664;2024-01-07T03:45:22;1.00;91.10
18321;DHT22;54904;54.350;18.664;2024-01-07T03:47:49;1.30;91.20
18321;DHT22;54904;54.350;18.664;2024-01-07T03:50:17;1.00;91.10
18321;DHT22;54904;54.350;18.664;2024-01-07T03:52:44;1.00;91.10
18321;DHT22;54904;54.350;18.664;2024-01-07T03:55:11;0.90;91.00
18321;DHT22;54904;54.350;18.664;2024-01-07T03:57:38;0.80;91.00
18321;DHT22;54904;54.350;18.664;2024-01-07T04:00:06;0.90;91.20
18321;DHT22;54904;54.350;18.664;2024-01-07T04:02:35;0.80;91.10
18321;DHT22;54904;54.350;18.664;2024-01-07T04:05:02;0.80;91.20
18321;DHT22;54904;54.350;18.664;2024-01-07T04:07:31;0.80;91.30
18321;DHT22;54904;54.350;18.664;2024-01-07T04:09:58;0.80;91.40
18321;DHT22;54904;54.350;18.664;2024-01-07T04:12:25;0.80;91.50
18321;DHT22;54904;54.350;18.664;2024-01-07T04:14:53;0.80;91.50
18321;DHT22;54904;54.350;18.664;2024-01-07T04:17:20;0.80;91.60
18321;DHT22;54904;54.350;18.664;2024-01-07T04:19:47;0.80;91.60
18321;DHT22;54904;54.350;18.664;2024-01-07T04:22:14;0.90;91.70
18321;DHT22;54904;54.350;18.664;2024-01-07T04:24:42;0.80;91.60
18321;DHT22;54904;54.350;18.664;2024-01-07T04:27:09;0.90;91.80
18321;DHT22;54904;54.350;18.664;2024-01-07T04:29:37;0.90;91.80
18321;DHT22;54904;54.350;18.664;2024-01-07T04:32:04;0.90;91.80
18321;DHT22;54904;54.350;18.664;2024-01-07T04:34:31;0.90;91.90
18321;DHT22;54904;54.350;18.664;2024-01-07T04:36:58;0.90;92.00
18321;DHT22;54904;54.350;18.664;2024-01-07T04:39:25;0.90;92.10
18321;DHT22;54904;54.350;18.664;2024-01-07T04:41:54;0.90;92.10
18321;DHT22;54904;54.350;18.664;2024-01-07T04:44:21;0.90;92.00
18321;DHT22;54904;54.350;18.664;2024-01-07T04:46:48;-0.10;91.60
18321;DHT22;54904;54.350;18.664;2024-01-07T04:49:15;0.80;91.90
18321;DHT22;54904;54.350;18.664;2024-01-07T04:51:42;0.80;91.80
18321;DHT22;54904;54.350;18.664;2024-01-07T04:54:09;0.70;91.80
18321;DHT22;54904;54.350;18.664;2024-01-07T04:56:36;0.60;91.90
18321;DHT22;54904;54.350;18.664;2024-01-07T04:59:05;0.60;92.00
18321;DHT22;54904;54.350;18.664;2024-01-07T05:01:32;0.50;91.90
18321;DHT22;54904;54.350;18.664;2024-01-07T05:03:59;0.50;91.90
18321;DHT22;54904;54.350;18.664;2024-01-07T05:06:26;0.50;91.90
18321;DHT22;54904;54.350;18.664;2024-01-07T05:08:53;0.40;91.70
18321;DHT22;54904;54.350;18.664;2024-01-07T05:11:20;0.30;91.70
18321;DHT22;54904;54.350;18.664;2024-01-07T05:13:47;0.20;91.60
18321;DHT22;54904;54.350;18.664;2024-01-07T05:16:22;0.20;91.60
18321;DHT22;54904;54.350;18.664;2024-01-07T05:18:51;0.20;91.60
18321;DHT22;54904;54.350;18.664;2024-01-07T05:21:18;0.10;91.40
18321;DHT22;54904;54.350;18.664;2024-01-07T05:23:45;0.10;91.30
18321;DHT22;54904;54.350;18.664;2024-01-07T05:26:12;0.00;91.10
18321;DHT22;54904;54.350;18.664;2024-01-07T05:28:40;-0.10;91.20
18321;DHT22;54904;54.350;18.664;2024-01-07T05:31:14;-0.20;90.80
18321;DHT22;54904;54.350;18.664;2024-01-07T05:33:43;-0.30;90.50
18321;DHT22;54904;54.350;18.664;2024-01-07T05:36:10;-0.30;90.80
18321;DHT22;54904;54.350;18.664;2024-01-07T05:38:37;0.10;90.90
18321;DHT22;54904;54.350;18.664;2024-01-07T05:41:04;-0.30;90.70
18321;DHT22;54904;54.350;18.664;2024-01-07T05:43:31;-0.40;90.30
18321;DHT22;54904;54.350;18.664;2024-01-07T05:45:58;-0.40;90.30
18321;DHT22;54904;54.350;18.664;2024-01-07T05:48:25;-0.40;90.00
18321;DHT22;54904;54.350;18.664;2024-01-07T05:50:54;-0.40;90.10
18321;DHT22;54904;54.350;18.664;2024-01-07T05:53:21;-0.50;90.00
18321;DHT22;54904;54.350;18.664;2024-01-07T05:55:48;-0.50;90.10
18321;DHT22;54904;54.350;18.664;2024-01-07T05:58:15;-0.40;90.00
18321;DHT22;54904;54.350;18.664;2024-01-07T06:00:42;-0.30;89.80
18321;DHT22;54904;54.350;18.664;2024-01-07T06:03:10;-0.30;89.70
18321;DHT22;54904;54.350;18.664;2024-01-07T06:05:38;-0.40;88.00
18321;DHT22;54904;54.350;18.664;2024-01-07T06:08:07;-0.40;88.20
18321;DHT22;54904;54.350;18.664;2024-01-07T06:10:35;-0.50;88.70
18321;DHT22;54904;54.350;18.664;2024-01-07T06:13:02;-0.50;88.90
18321;DHT22;54904;54.350;18.664;2024-01-07T06:15:30;-0.40;89.00
18321;DHT22;54904;54.350;18.664;2024-01-07T06:17:57;-0.30;89.20
18321;DHT22;54904;54.350;18.664;2024-01-07T06:20:24;-0.20;88.40
18321;DHT22;54904;54.350;18.664;2024-01-07T06:22:51;-0.20;87.20
18321;DHT22;54904;54.350;18.664;2024-01-07T06:25:20;-0.30;85.70
18321;DHT22;54904;54.350;18.664;2024-01-07T06:27:47;-0.30;84.50
18321;DHT22;54904;54.350;18.664;2024-01-07T06:30:14;-0.30;83.40
18321;DHT22;54904;54.350;18.664;2024-01-07T06:32:43;-0.40;83.60
18321;DHT22;54904;54.350;18.664;2024-01-07T06:35:11;-0.40;83.70
18321;DHT22;54904;54.350;18.664;2024-01-07T06:37:38;-0.40;83.70
18321;DHT22;54904;54.350;18.664;2024-01-07T06:40:06;-0.40;82.90
18321;DHT22;54904;54.350;18.664;2024-01-07T06:42:34;-0.50;83.40
18321;DHT22;54904;54.350;18.664;2024-01-07T06:45:03;-0.50;84.10
18321;DHT22;54904;54.350;18.664;2024-01-07T06:47:30;-0.50;84.30
18321;DHT22;54904;54.350;18.664;2024-01-07T06:49:57;-0.40;84.10
18321;DHT22;54904;54.350;18.664;2024-01-07T06:52:24;-0.50;84.20
18321;DHT22;54904;54.350;18.664;2024-01-07T06:54:51;-0.50;83.80
18321;DHT22;54904;54.350;18.664;2024-01-07T06:57:18;-0.50;83.40
18321;DHT22;54904;54.350;18.664;2024-01-07T06:59:47;-0.50;83.70
18321;DHT22;54904;54.350;18.664;2024-01-07T07:02:14;-0.50;83.20
18321;DHT22;54904;54.350;18.664;2024-01-07T07:04:41;-0.50;82.70
18321;DHT22;54904;54.350;18.664;2024-01-07T07:07:08;-0.50;82.40
18321;DHT22;54904;54.350;18.664;2024-01-07T07:09:35;-0.60;81.70
18321;DHT22;54904;54.350;18.664;2024-01-07T07:12:02;-0.60;82.00
18321;DHT22;54904;54.350;18.664;2024-01-07T07:14:29;-0.70;82.20
18321;DHT22;54904;54.350;18.664;2024-01-07T07:16:58;-0.70;82.20
18321;DHT22;54904;54.350;18.664;2024-01-07T07:19:25;-0.80;82.40
18321;DHT22;54904;54.350;18.664;2024-01-07T07:21:52;-0.90;82.40
18321;DHT22;54904;54.350;18.664;2024-01-07T07:24:19;-0.80;82.40
18321;DHT22;54904;54.350;18.664;2024-01-07T07:26:46;-0.70;82.30
18321;DHT22;54904;54.350;18.664;2024-01-07T07:29:13;-0.70;81.90
18321;DHT22;54904;54.350;18.664;2024-01-07T07:31:40;-0.70;81.30
18321;DHT22;54904;54.350;18.664;2024-01-07T07:34:10;-0.70;80.60
18321;DHT22;54904;54.350;18.664;2024-01-07T07:36:37;-0.70;80.80
18321;DHT22;54904;54.350;18.664;2024-01-07T07:39:06;-0.80;80.90
18321;DHT22;54904;54.350;18.664;2024-01-07T07:41:34;-1.00;80.90
18321;DHT22;54904;54.350;18.664;2024-01-07T07:44:01;-0.90;81.30
18321;DHT22;54904;54.350;18.664;2024-01-07T07:46:29;-1.00;81.20
18321;DHT22;54904;54.350;18.664;2024-01-07T07:48:56;-1.00;81.50
18321;DHT22;54904;54.350;18.664;2024-01-07T07:51:24;-1.00;81.80
18321;DHT22;54904;54.350;18.664;2024-01-07T07:53:52;-1.00;81.90
18321;DHT22;54904;54.350;18.664;2024-01-07T07:56:19;-1.00;82.10
18321;DHT22;54904;54.350;18.664;2024-01-07T07:58:46;-1.00;82.30
18321;DHT22;54904;54.350;18.664;2024-01-07T08:01:14;-1.00;82.20
18321;DHT22;54904;54.350;18.664;2024-01-07T08:03:41;-0.90;82.00
18321;DHT22;54904;54.350;18.664;2024-01-07T08:06:08;-0.90;81.60
18321;DHT22;54904;54.350;18.664;2024-01-07T08:08:38;-0.80;81.00
18321;DHT22;54904;54.350;18.664;2024-01-07T08:11:05;-0.80;81.30
18321;DHT22;54904;54.350;18.664;2024-01-07T08:13:35;-0.90;81.10
18321;DHT22;54904;54.350;18.664;2024-01-07T08:16:04;-0.80;81.50
18321;DHT22;54904;54.350;18.664;2024-01-07T08:18:31;-0.80;81.30
18321;DHT22;54904;54.350;18.664;2024-01-07T08:20:59;-0.80;81.60
18321;DHT22;54904;54.350;18.664;2024-01-07T08:23:26;-0.80;81.00
18321;DHT22;54904;54.350;18.664;2024-01-07T08:25:54;-0.80;81.10
18321;DHT22;54904;54.350;18.664;2024-01-07T08:28:21;-0.80;80.20
18321;DHT22;54904;54.350;18.664;2024-01-07T08:30:48;-0.80;80.30
18321;DHT22;54904;54.350;18.664;2024-01-07T08:33:17;-0.90;80.70
18321;DHT22;54904;54.350;18.664;2024-01-07T08:35:44;-1.00;80.40
18321;DHT22;54904;54.350;18.664;2024-01-07T08:38:11;-0.90;80.60
18321;DHT22;54904;54.350;18.664;2024-01-07T08:40:39;-0.80;80.60
18321;DHT22;54904;54.350;18.664;2024-01-07T08:43:06;-0.90;80.60
18321;DHT22;54904;54.350;18.664;2024-01-07T08:45:33;-0.90;80.70
18321;DHT22;54904;54.350;18.664;2024-01-07T08:48:00;-1.00;80.70
18321;DHT22;54904;54.350;18.664;2024-01-07T08:50:27;-0.90;80.90
18321;DHT22;54904;54.350;18.664;2024-01-07T08:52:55;-0.80;80.70
18321;DHT22;54904;54.350;18.664;2024-01-07T08:55:22;-0.90;80.40
18321;DHT22;54904;54.350;18.664;2024-01-07T08:57:49;-1.00;80.70
18321;DHT22;54904;54.350;18.664;2024-01-07T09:00:19;-1.00;80.80
18321;DHT22;54904;54.350;18.664;2024-01-07T09:02:47;-1.00;80.90
18321;DHT22;54904;54.350;18.664;2024-01-07T09:05:14;-1.00;80.90
18321;DHT22;54904;54.350;18.664;2024-01-07T09:07:41;-1.00;81.20
18321;DHT22;54904;54.350;18.664;2024-01-07T09:10:08;-1.00;80.90
18321;DHT22;54904;54.350;18.664;2024-01-07T09:12:37;-1.00;81.00
18321;DHT22;54904;54.350;18.664;2024-01-07T09:15:05;-1.00;80.60
18321;DHT22;54904;54.350;18.664;2024-01-07T09:17:36;-0.90;80.30
18321;DHT22;54904;54.350;18.664;2024-01-07T09:20:03;-0.90;79.90
18321;DHT22;54904;54.350;18.664;2024-01-07T09:22:33;-0.90;79.60
18321;DHT22;54904;54.350;18.664;2024-01-07T09:25:00;-0.90;79.30
18321;DHT22;54904;54.350;18.664;2024-01-07T09:27:28;-1.00;79.00
18321;DHT22;54904;54.350;18.664;2024-01-07T09:29:55;-1.00;79.20
18321;DHT22;54904;54.350;18.664;2024-01-07T09:32:22;-1.00;79.00
18321;DHT22;54904;54.350;18.664;2024-01-07T09:34:51;-1.00;79.10
18321;DHT22;54904;54.350;18.664;2024-01-07T09:37:18;-1.00;79.00
18321;DHT22;54904;54.350;18.664;2024-01-07T09:39:45;-0.90;78.90
18321;DHT22;54904;54.350;18.664;2024-01-07T09:42:14;-0.80;78.60
18321;DHT22;54904;54.350;18.664;2024-01-07T09:44:42;-0.80;78.30
18321;DHT22;54904;54.350;18.664;2024-01-07T09:47:11;-0.80;78.20
18321;DHT22;54904;54.350;18.664;2024-01-07T09:49:38;-0.70;78.80
18321;DHT22;54904;54.350;18.664;2024-01-07T09:52:08;-0.60;78.10
18321;DHT22;54904;54.350;18.664;2024-01-07T09:54:36;-0.50;77.80
18321;DHT22;54904;54.350;18.664;2024-01-07T09:57:06;-0.40;77.80
18321;DHT22;54904;54.350;18.664;2024-01-07T09:59:34;-0.30;77.60
18321;DHT22;54904;54.350;18.664;2024-01-07T10:02:02;-0.30;77.20
18321;DHT22;54904;54.350;18.664;2024-01-07T10:04:30;-0.40;76.40
18321;DHT22;54904;54.350;18.664;2024-01-07T10:06:57;-0.40;76.20
18321;DHT22;54904;54.350;18.664;2024-01-07T10:09:29;-0.40;76.10
18321;DHT22;54904;54.350;18.664;2024-01-07T10:11:56;-0.40;76.20
18321;DHT22;54904;54.350;18.664;2024-01-07T10:14:23;-0.40;76.50
18321;DHT22;54904;54.350;18.664;2024-01-07T10:16:51;-0.40;76.60
18321;DHT22;54904;54.350;18.664;2024-01-07T10:19:20;-0.40;76.70
18321;DHT22;54904;54.350;18.664;2024-01-07T10:21:59;-0.50;76.80
18321;DHT22;54904;54.350;18.664;2024-01-07T10:24:35;-0.40;76.90
18321;DHT22;54904;54.350;18.664;2024-01-07T10:27:04;-0.40;75.70
18321;DHT22;54904;54.350;18.664;2024-01-07T10:29:32;-0.50;75.40
18321;DHT22;54904;54.350;18.664;2024-01-07T10:31:59;-0.50;75.60
18321;DHT22;54904;54.350;18.664;2024-01-07T10:34:29;-0.60;76.00
18321;DHT22;54904;54.350;18.664;2024-01-07T10:36:59;-0.60;76.00
18321;DHT22;54904;54.350;18.664;2024-01-07T10:39:26;-0.70;75.90
18321;DHT22;54904;54.350;18.664;2024-01-07T10:41:56;-0.60;76.60
18321;DHT22;54904;54.350;18.664;2024-01-07T10:44:25;-0.60;76.50
18321;DHT22;54904;54.350;18.664;2024-01-07T10:46:54;-0.50;76.20
18321;DHT22;54904;54.350;18.664;2024-01-07T10:49:23;-0.50;75.90
18321;DHT22;54904;54.350;18.664;2024-01-07T10:52:02;-0.40;76.30
18321;DHT22;54904;54.350;18.664;2024-01-07T10:54:31;-0.10;76.30
18321;DHT22;54904;54.350;18.664;2024-01-07T10:57:07;-0.20;75.90
18321;DHT22;54904;54.350;18.664;2024-01-07T10:59:36;-0.10;76.30
18321;DHT22;54904;54.350;18.664;2024-01-07T11:02:04;0.20;77.20
18321;DHT22;54904;54.350;18.664;2024-01-07T11:04:37;0.50;75.30
18321;DHT22;54904;54.350;18.664;2024-01-07T11:07:14;0.60;75.10
18321;DHT22;54904;54.350;18.664;2024-01-07T11:10:01;0.50;75.20
18321;DHT22;54904;54.350;18.664;2024-01-07T11:12:32;0.50;75.30
18321;DHT22;54904;54.350;18.664;2024-01-07T11:14:59;0.40;75.10
18321;DHT22;54904;54.350;18.664;2024-01-07T11:17:42;0.30;75.00
18321;DHT22;54904;54.350;18.664;2024-01-07T11:20:16;0.20;74.80
18321;DHT22;54904;54.350;18.664;2024-01-07T11:22:44;0.10;74.30
18321;DHT22;54904;54.350;18.664;2024-01-07T11:25:28;0.10;74.90
18321;DHT22;54904;54.350;18.664;2024-01-07T11:27:57;0.00;74.50
18321;DHT22;54904;54.350;18.664;2024-01-07T11:30:25;-0.10;74.80
18321;DHT22;54904;54.350;18.664;2024-01-07T11:32:58;-0.10;74.80
18321;DHT22;54904;54.350;18.664;2024-01-07T11:35:56;-0.20;75.50
18321;DHT22;54904;54.350;18.664;2024-01-07T11:38:23;-0.20;74.90
18321;DHT22;54904;54.350;18.664;2024-01-07T11:40:52;-0.20;75.10
18321;DHT22;54904;54.350;18.664;2024-01-07T11:43:21;-0.20;74.60
18321;DHT22;54904;54.350;18.664;2024-01-07T11:45:49;-0.30;74.40
18321;DHT22;54904;54.350;18.664;2024-01-07T11:48:17;-0.40;74.20
18321;DHT22;54904;54.350;18.664;2024-01-07T11:50:44;-0.50;73.90
18321;DHT22;54904;54.350;18.664;2024-01-07T11:53:12;-0.50;74.20
18321;DHT22;54904;54.350;18.664;2024-01-07T11:55:39;-0.50;74.50
18321;DHT22;54904;54.350;18.664;2024-01-07T11:58:06;-0.50;74.70
18321;DHT22;54904;54.350;18.664;2024-01-07T12:00:37;-0.60;74.60
18321;DHT22;54904;54.350;18.664;2024-01-07T12:03:06;-0.60;74.50
18321;DHT22;54904;54.350;18.664;2024-01-07T12:05:33;-0.70;74.40
18321;DHT22;54904;54.350;18.664;2024-01-07T12:08:03;-0.70;74.50
18321;DHT22;54904;54.350;18.664;2024-01-07T12:10:33;-0.60;75.00
18321;DHT22;54904;54.350;18.664;2024-01-07T12:13:00;-0.60;75.00
18321;DHT22;54904;54.350;18.664;2024-01-07T12:15:29;-0.60;75.10
18321;DHT22;54904;54.350;18.664;2024-01-07T12:17:59;-0.50;75.00
18321;DHT22;54904;54.350;18.664;2024-01-07T12:20:27;-0.40;74.90
18321;DHT22;54904;54.350;18.664;2024-01-07T12:23:04;-0.50;74.70
18321;DHT22;54904;54.350;18.664;2024-01-07T12:25:31;-0.60;74.60
18321;DHT22;54904;54.350;18.664;2024-01-07T12:27:58;-0.70;74.50
18321;DHT22;54904;54.350;18.664;2024-01-07T12:30:25;-0.70;74.60
18321;DHT22;54904;54.350;18.664;2024-01-07T12:32:53;-0.80;74.80
18321;DHT22;54904;54.350;18.664;2024-01-07T12:35:25;-0.80;75.20
18321;DHT22;54904;54.350;18.664;2024-01-07T12:37:52;-0.80;75.30
18321;DHT22;54904;54.350;18.664;2024-01-07T12:40:19;-0.70;75.30
18321;DHT22;54904;54.350;18.664;2024-01-07T12:42:46;-0.70;74.90
18321;DHT22;54904;54.350;18.664;2024-01-07T12:45:15;-0.70;74.90
18321;DHT22;54904;54.350;18.664;2024-01-07T12:47:42;-0.60;74.90
18321;DHT22;54904;54.350;18.664;2024-01-07T12:50:10;-0.60;74.80
18321;DHT22;54904;54.350;18.664;2024-01-07T12:52:39;-0.60;75.00
18321;DHT22;54904;54.350;18.664;2024-01-07T12:55:07;-0.60;75.30
18321;DHT22;54904;54.350;18.664;2024-01-07T13:01:14;-0.40;75.10
18321;DHT22;54904;54.350;18.664;2024-01-07T13:05:04;-0.80;74.20
18321;DHT22;54904;54.350;18.664;2024-01-07T13:07:47;-0.60;75.30
18321;DHT22;54904;54.350;18.664;2024-01-07T13:10:43;-0.70;74.90
18321;DHT22;54904;54.350;18.664;2024-01-07T13:16:49;-0.80;74.50
18321;DHT22;54904;54.350;18.664;2024-01-07T13:20:19;0.50;75.70
18321;DHT22;54904;54.350;18.664;2024-01-07T13:30:39;-0.30;74.60
18321;DHT22;54904;54.350;18.664;2024-01-07T13:33:24;0.40;75.20
18321;DHT22;54904;54.350;18.664;2024-01-07T13:36:45;-0.70;75.00
18321;DHT22;54904;54.350;18.664;2024-01-07T13:40:42;-0.80;75.70
18321;DHT22;54904;54.350;18.664;2024-01-07T13:43:46;-0.80;75.00
18321;DHT22;54904;54.350;18.664;2024-01-07T13:46:38;-0.90;75.60
18321;DHT22;54904;54.350;18.664;2024-01-07T13:49:05;-1.00;75.70
18321;DHT22;54904;54.350;18.664;2024-01-07T13:51:33;-1.00;76.20
18321;DHT22;54904;54.350;18.664;2024-01-07T13:54:03;-1.00;76.70
18321;DHT22;54904;54.350;18.664;2024-01-07T13:56:31;-1.00;76.80
18321;DHT22;54904;54.350;18.664;2024-01-07T13:59:01;-1.00;76.10
18321;DHT22;54904;54.350;18.664;2024-01-07T14:01:29;-1.00;75.50
18321;DHT22;54904;54.350;18.664;2024-01-07T14:03:58;-1.00;75.40
18321;DHT22;54904;54.350;18.664;2024-01-07T14:06:25;-1.10;74.80
18321;DHT22;54904;54.350;18.664;2024-01-07T14:08:52;-1.00;74.80
18321;DHT22;54904;54.350;18.664;2024-01-07T14:11:20;-1.20;74.90
18321;DHT22;54904;54.350;18.664;2024-01-07T14:13:47;-1.20;74.90
18321;DHT22;54904;54.350;18.664;2024-01-07T14:16:15;-1.20;75.00
18321;DHT22;54904;54.350;18.664;2024-01-07T14:18:42;-1.30;74.90
18321;DHT22;54904;54.350;18.664;2024-01-07T14:21:10;-1.20;75.10
18321;DHT22;54904;54.350;18.664;2024-01-07T14:23:37;-1.20;75.30
18321;DHT22;54904;54.350;18.664;2024-01-07T14:26:04;-1.20;75.60
18321;DHT22;54904;54.350;18.664;2024-01-07T14:28:31;-1.30;75.30
18321;DHT22;54904;54.350;18.664;2024-01-07T14:30:58;-1.30;75.40
18321;DHT22;54904;54.350;18.664;2024-01-07T14:33:25;-1.30;75.90
18321;DHT22;54904;54.350;18.664;2024-01-07T14:35:53;-1.40;76.40
18321;DHT22;54904;54.350;18.664;2024-01-07T14:38:21;-1.40;76.50
18321;DHT22;54904;54.350;18.664;2024-01-07T14:40:48;-1.50;76.60
18321;DHT22;54904;54.350;18.664;2024-01-07T14:43:17;-1.50;76.50
18321;DHT22;54904;54.350;18.664;2024-01-07T14:45:44;-1.50;76.60
18321;DHT22;54904;54.350;18.664;2024-01-07T14:48:11;-1.50;76.80
18321;DHT22;54904;54.350;18.664;2024-01-07T14:50:39;-1.50;76.80
18321;DHT22;54904;54.350;18.664;2024-01-07T14:53:07;-1.60;76.70
18321;DHT22;54904;54.350;18.664;2024-01-07T14:55:35;-1.40;77.10
18321;DHT22;54904;54.350;18.664;2024-01-07T14:58:02;-1.50;77.10
18321;DHT22;54904;54.350;18.664;2024-01-07T15:00:29;-1.50;76.90
18321;DHT22;54904;54.350;18.664;2024-01-07T15:02:57;-1.50;76.80
18321;DHT22;54904;54.350;18.664;2024-01-07T15:05:24;-1.50;77.00
18321;DHT22;54904;54.350;18.664;2024-01-07T15:07:51;-1.50;77.20
18321;DHT22;54904;54.350;18.664;2024-01-07T15:10:18;-1.50;77.30
18321;DHT22;54904;54.350;18.664;2024-01-07T15:12:47;-1.50;77.20
18321;DHT22;54904;54.350;18.664;2024-01-07T15:15:15;-1.40;77.20
18321;DHT22;54904;54.350;18.664;2024-01-07T15:17:47;-1.40;77.10
18321;DHT22;54904;54.350;18.664;2024-01-07T15:20:14;-1.40;77.10
18321;DHT22;54904;54.350;18.664;2024-01-07T15:22:42;-1.40;77.10
18321;DHT22;54904;54.350;18.664;2024-01-07T15:25:09;-1.50;77.10
18321;DHT22;54904;54.350;18.664;2024-01-07T15:27:36;-1.40;77.10
18321;DHT22;54904;54.350;18.664;2024-01-07T15:30:07;-1.40;76.90
18321;DHT22;54904;54.350;18.664;2024-01-07T15:32:34;-1.40;76.90
18321;DHT22;54904;54.350;18.664;2024-01-07T15:35:01;-1.50;76.70
18321;DHT22;54904;54.350;18.664;2024-01-07T15:37:30;-1.50;76.70
18321;DHT22;54904;54.350;18.664;2024-01-07T15:39:57;-1.60;76.80
18321;DHT22;54904;54.350;18.664;2024-01-07T15:42:28;-1.50;77.20
18321;DHT22;54904;54.350;18.664;2024-01-07T15:44:55;-1.60;77.20
18321;DHT22;54904;54.350;18.664;2024-01-07T15:47:25;-1.50;77.40
18321;DHT22;54904;54.350;18.664;2024-01-07T15:49:53;-1.60;77.30